createdAt,value
2018-05-21T00:02:26.498Z,70.11
2018-05-21T00:04:54.046Z,69.89
2018-05-21T00:07:21.579Z,70.14
2018-05-21T00:09:49.621Z,70.23
2018-05-21T00:12:17.187Z,70.34
2018-05-21T00:14:44.705Z,70.28
2018-05-21T00:17:12.193Z,70.22
2018-05-21T00:19:39.688Z,70.46
2018-05-21T00:22:07.197Z,70.63
2018-05-21T00:24:47.143Z,69.70
2018-05-21T00:27:14.722Z,69.77
2018-05-21T00:29:42.251Z,70.34
2018-05-21T00:32:10.687Z,70.70
2018-05-21T00:34:38.507Z,70.20
2018-05-21T00:37:06.635Z,70.66
2018-05-21T00:39:34.445Z,70.63
2018-05-21T00:42:02.008Z,70.96
2018-05-21T00:44:29.510Z,71.02
2018-05-21T00:46:57.019Z,70.79
2018-05-21T00:49:24.519Z,70.79
2018-05-21T00:51:52.039Z,70.81
2018-05-21T00:54:19.542Z,71.05
2018-05-21T00:56:47.067Z,70.85
2018-05-21T00:59:14.551Z,71.21
2018-05-21T01:01:42.098Z,71.59
2018-05-21T01:04:09.610Z,71.68
2018-05-21T01:06:37.123Z,71.72
2018-05-21T01:09:05.493Z,71.97
2018-05-21T01:11:32.983Z,72.15
2018-05-21T01:14:00.484Z,72.40
2018-05-21T01:16:27.977Z,72.47
2018-05-21T01:18:55.530Z,72.61
2018-05-21T01:21:23.013Z,72.54
2018-05-21T01:23:50.496Z,71.88
2018-05-21T01:26:18.019Z,71.94
2018-05-21T01:28:45.518Z,72.30
2018-05-21T01:31:13.018Z,72.28
2018-05-21T01:33:40.528Z,72.74
2018-05-21T01:36:08.027Z,73.13
2018-05-21T01:38:35.559Z,73.47
2018-05-21T01:41:03.183Z,73.09
2018-05-21T01:43:30.649Z,73.03
2018-05-21T01:45:58.178Z,73.24
2018-05-21T01:48:25.721Z,73.55
2018-05-21T01:50:53.211Z,73.92
2018-05-21T01:53:20.726Z,74.25
2018-05-21T01:55:48.237Z,74.33
2018-05-21T01:58:15.715Z,74.51
2018-05-21T02:00:43.254Z,74.47
2018-05-21T02:03:10.737Z,74.54
2018-05-21T02:05:38.225Z,74.83
2018-05-21T02:08:05.756Z,74.60
2018-05-21T02:10:33.236Z,74.51
2018-05-21T02:13:00.798Z,74.79
2018-05-21T02:15:28.303Z,75.05
2018-05-21T02:17:55.795Z,75.19
2018-05-21T02:20:23.299Z,75.66
2018-05-21T02:22:50.861Z,75.10
2018-05-21T02:25:18.363Z,75.04
2018-05-21T02:27:45.856Z,75.15
2018-05-21T02:30:13.375Z,75.06
2018-05-21T02:32:40.894Z,75.41
2018-05-21T02:35:08.411Z,75.21
2018-05-21T02:37:35.928Z,75.37
2018-05-21T02:40:03.415Z,75.53
2018-05-21T02:42:30.938Z,75.50
2018-05-21T02:44:58.425Z,75.34
2018-05-21T02:47:25.916Z,75.35
2018-05-21T02:49:53.403Z,75.58
2018-05-21T02:52:20.915Z,75.85
2018-05-21T02:54:48.391Z,76.37
2018-05-21T02:57:15.875Z,76.32
2018-05-21T02:59:43.386Z,76.31
2018-05-21T03:02:10.883Z,76.27
2018-05-21T03:04:38.378Z,76.63
2018-05-21T03:07:05.880Z,76.86
2018-05-21T03:09:33.358Z,76.99
2018-05-21T03:12:00.872Z,77.16
2018-05-21T03:14:28.336Z,76.96
2018-05-21T03:16:55.856Z,76.86
2018-05-21T03:19:23.360Z,77.08
2018-05-21T03:21:50.848Z,77.17
2018-05-21T03:24:18.355Z,77.17
2018-05-21T03:26:45.867Z,77.26
2018-05-21T03:29:13.450Z,77.18
2018-05-21T03:31:41.004Z,77.26
2018-05-21T03:34:08.491Z,77.05
2018-05-21T03:36:35.998Z,76.52
2018-05-21T03:39:03.540Z,76.10
2018-05-21T03:41:31.075Z,75.98
2018-05-21T03:43:58.534Z,76.12
2018-05-21T03:46:26.010Z,76.01
2018-05-21T03:48:53.561Z,76.12
2018-05-21T03:51:21.075Z,75.90
2018-05-21T03:53:48.575Z,75.84
2018-05-21T03:56:16.126Z,75.67
2018-05-21T03:58:55.563Z,75.70
2018-05-21T04:01:34.905Z,75.57
2018-05-21T04:04:02.402Z,75.60
2018-05-21T04:06:30.792Z,75.68
2018-05-21T04:08:58.326Z,75.99
2018-05-21T04:11:25.823Z,75.99
2018-05-21T04:13:53.316Z,76.01
2018-05-21T04:16:20.801Z,75.95
2018-05-21T04:18:48.306Z,76.07
2018-05-21T04:21:15.805Z,76.15
2018-05-21T04:23:43.309Z,75.96
2018-05-21T04:26:10.818Z,75.86
2018-05-21T04:28:38.311Z,75.85
2018-05-21T04:31:05.818Z,75.93
2018-05-21T04:33:33.316Z,75.97
2018-05-21T04:36:00.780Z,75.93
2018-05-21T04:38:28.280Z,75.85
2018-05-21T04:40:55.762Z,75.07
2018-05-21T04:43:23.229Z,74.62
2018-05-21T04:45:50.718Z,74.18
2018-05-21T04:48:18.205Z,74.04
2018-05-21T04:50:45.722Z,73.86
2018-05-21T04:53:13.212Z,73.72
2018-05-21T04:55:40.771Z,73.51
2018-05-21T04:58:08.221Z,73.03
2018-05-21T05:00:35.742Z,72.62
2018-05-21T05:03:03.302Z,72.27
2018-05-21T05:05:30.788Z,71.90
2018-05-21T05:07:58.255Z,70.96
2018-05-21T05:10:25.722Z,70.76
2018-05-21T05:12:53.206Z,70.30
2018-05-21T05:15:20.663Z,70.20
2018-05-21T05:17:48.188Z,69.86
2018-05-21T05:20:15.657Z,69.25
2018-05-21T05:22:43.154Z,68.70
2018-05-21T05:25:10.693Z,67.96
2018-05-21T05:27:38.154Z,67.32
2018-05-21T05:30:05.671Z,66.52
2018-05-21T05:32:33.152Z,65.82
2018-05-21T05:35:00.691Z,64.94
2018-05-21T05:37:28.162Z,64.15
2018-05-21T05:39:55.653Z,63.47
2018-05-21T05:42:23.115Z,62.89
2018-05-21T05:44:50.587Z,61.79
2018-05-21T05:47:18.066Z,61.04
2018-05-21T05:49:45.573Z,60.23
2018-05-21T05:52:13.235Z,59.25
2018-05-21T05:54:40.711Z,59.58
2018-05-21T05:57:08.192Z,59.78
2018-05-21T05:59:35.684Z,60.17
2018-05-21T06:02:03.166Z,60.22
2018-05-21T06:04:30.625Z,60.16
2018-05-21T06:06:58.338Z,59.82
2018-05-21T06:09:25.972Z,58.90
2018-05-21T06:11:53.459Z,59.51
2018-05-21T06:14:20.934Z,58.96
2018-05-21T06:16:48.425Z,58.33
2018-05-21T06:19:15.890Z,58.22
2018-05-21T06:21:43.354Z,57.82
2018-05-21T06:24:10.831Z,57.57
2018-05-21T06:26:38.283Z,55.97
2018-05-21T06:29:05.764Z,54.75
2018-05-21T06:31:33.239Z,54.82
2018-05-21T06:34:01.005Z,54.09
2018-05-21T06:36:28.443Z,51.97
2018-05-21T06:38:55.926Z,52.08
2018-05-21T06:41:23.428Z,51.65
2018-05-21T06:43:50.907Z,51.39
2018-05-21T06:48:57.016Z,49.28
2018-05-21T06:51:24.597Z,48.76
2018-05-21T06:53:52.065Z,48.65
2018-05-21T06:56:19.611Z,48.26
2018-05-21T06:58:47.085Z,49.19
2018-05-21T07:01:14.599Z,49.50
2018-05-21T07:03:42.095Z,49.40
2018-05-21T07:06:09.550Z,48.22
2018-05-21T07:08:37.039Z,48.26
2018-05-21T07:11:04.500Z,47.66
2018-05-21T07:13:31.959Z,47.96
2018-05-21T07:15:59.454Z,48.40
2018-05-21T07:18:26.935Z,48.53
2018-05-21T07:20:54.446Z,48.20
2018-05-21T07:23:21.951Z,47.90
2018-05-21T07:25:49.464Z,48.00
2018-05-21T07:28:16.935Z,48.09
2018-05-21T07:30:44.705Z,48.22
2018-05-21T07:33:12.174Z,48.56
2018-05-21T07:35:39.623Z,48.48
2018-05-21T07:38:07.482Z,48.63
2018-05-21T07:40:35.618Z,48.85
2018-05-21T07:43:03.093Z,47.89
2018-05-21T07:45:30.647Z,47.88
2018-05-21T07:47:58.155Z,46.44
2018-05-21T07:50:25.623Z,47.79
2018-05-21T07:52:53.139Z,47.62
2018-05-21T07:55:20.661Z,48.22
2018-05-21T07:57:48.177Z,47.48
2018-05-21T08:00:15.661Z,47.42
2018-05-21T08:02:43.129Z,46.91
2018-05-21T08:05:10.664Z,47.22
2018-05-21T08:07:38.065Z,47.32
2018-05-21T08:10:05.550Z,46.98
2018-05-21T08:12:33.012Z,46.31
2018-05-21T08:15:00.491Z,45.89
2018-05-21T08:17:27.960Z,44.51
2018-05-21T08:19:55.441Z,44.50
2018-05-21T08:22:23.782Z,44.90
2018-05-21T08:24:51.254Z,44.81
2018-05-21T08:27:18.795Z,44.66
2018-05-21T08:29:46.311Z,44.40
2018-05-21T08:32:13.748Z,44.79
2018-05-21T08:34:41.200Z,44.91
2018-05-21T08:37:08.801Z,44.85
2018-05-21T08:39:36.274Z,44.65
2018-05-21T08:42:03.753Z,44.39
2018-05-21T08:44:31.222Z,44.68
2018-05-21T08:46:58.709Z,44.63
2018-05-21T08:49:26.165Z,44.12
2018-05-21T08:51:53.642Z,43.51
2018-05-21T08:54:21.137Z,43.52
2018-05-21T08:56:48.618Z,43.59
2018-05-21T08:59:16.091Z,41.98
2018-05-21T09:01:43.561Z,41.51
2018-05-21T09:04:11.039Z,40.77
2018-05-21T09:06:38.545Z,40.32
2018-05-21T09:09:06.058Z,39.55
2018-05-21T09:11:33.538Z,39.60
2018-05-21T09:14:01.048Z,40.14
2018-05-21T09:16:28.522Z,39.85
2018-05-21T09:18:56.010Z,40.24
2018-05-21T09:21:23.471Z,39.77
2018-05-21T09:23:51.012Z,39.78
2018-05-21T09:26:18.479Z,38.61
2018-05-21T09:28:45.952Z,38.69
2018-05-21T09:31:13.573Z,38.64
2018-05-21T09:46:37.224Z,38.63
2018-05-21T09:49:04.757Z,38.20
2018-05-21T09:51:32.231Z,37.72
2018-05-21T09:53:59.731Z,37.79
2018-05-21T09:56:27.203Z,37.81
2018-05-21T09:58:54.675Z,37.67
2018-05-21T10:01:22.165Z,37.59
2018-05-21T10:03:49.679Z,37.74
2018-05-21T10:06:17.144Z,37.62
2018-05-21T10:08:44.631Z,37.17
2018-05-21T10:11:12.117Z,37.47
2018-05-21T10:13:39.569Z,36.61
2018-05-21T10:16:07.078Z,36.93
2018-05-21T10:18:34.549Z,36.01
2018-05-21T10:21:02.060Z,35.80
2018-05-21T10:23:29.561Z,36.21
2018-05-21T10:25:57.119Z,36.44
2018-05-21T10:28:24.531Z,36.25
2018-05-21T10:30:52.008Z,35.11
2018-05-21T10:33:19.476Z,35.71
2018-05-21T10:35:47.664Z,36.24
2018-05-21T10:38:15.152Z,35.74
2018-05-21T10:40:42.689Z,35.68
2018-05-21T10:43:11.191Z,35.67
2018-05-21T10:45:38.647Z,35.00
2018-05-21T10:48:06.172Z,34.91
2018-05-21T10:50:33.642Z,35.10
2018-05-21T10:53:01.119Z,34.77
2018-05-21T10:55:28.678Z,34.73
2018-05-21T10:57:56.154Z,34.81
2018-05-21T11:00:23.727Z,34.37
2018-05-21T11:02:51.271Z,33.73
2018-05-21T11:05:18.799Z,33.28
2018-05-21T11:07:46.274Z,33.80
2018-05-21T11:10:13.831Z,33.46
2018-05-21T11:12:41.302Z,32.33
2018-05-21T11:15:08.878Z,32.20
2018-05-21T11:17:41.049Z,31.90
2018-05-21T11:20:08.518Z,32.16
2018-05-21T11:22:36.067Z,31.64
2018-05-21T11:25:03.575Z,31.08
2018-05-21T11:27:31.231Z,30.25
2018-05-21T11:29:58.813Z,29.86
2018-05-21T11:32:28.138Z,30.01
2018-05-21T11:34:55.600Z,29.47
2018-05-21T11:37:23.060Z,29.06
2018-05-21T11:39:50.610Z,28.64
2018-05-21T11:42:18.095Z,27.89
2018-05-21T11:44:45.570Z,27.63
2018-05-21T11:47:13.066Z,27.57
2018-05-21T11:49:41.453Z,27.37
2018-05-21T11:52:09.018Z,27.46
2018-05-21T11:54:36.514Z,27.46
2018-05-21T11:57:04.002Z,27.60
2018-05-21T11:59:31.626Z,27.88
2018-05-21T12:02:01.362Z,27.62
2018-05-21T12:04:28.883Z,27.32
2018-05-21T12:06:56.339Z,26.99
2018-05-21T12:09:23.852Z,26.92
2018-05-21T12:11:51.467Z,27.06
2018-05-21T12:14:18.942Z,27.01
2018-05-21T12:16:46.523Z,26.66
2018-05-21T12:19:14.016Z,25.56
2018-05-21T12:21:41.494Z,24.54
2018-05-21T12:24:09.088Z,24.58
2018-05-21T12:26:36.773Z,24.97
2018-05-21T12:29:04.247Z,24.51
2018-05-21T12:31:31.815Z,24.04
2018-05-21T12:33:59.333Z,23.48
2018-05-21T12:36:26.933Z,23.69
2018-05-21T12:38:54.464Z,23.57
2018-05-21T12:41:30.229Z,23.23
2018-05-21T12:43:57.769Z,22.55
2018-05-21T12:46:25.345Z,21.82
2018-05-21T12:48:52.887Z,22.89
2018-05-21T12:51:20.384Z,22.99
2018-05-21T12:53:48.496Z,23.27
2018-05-21T12:56:16.020Z,23.36
2018-05-21T12:58:47.300Z,23.93
2018-05-21T13:01:14.756Z,24.25
2018-05-21T13:03:42.814Z,25.46
2018-05-21T13:06:10.425Z,25.55
2018-05-21T13:08:37.990Z,25.53
2018-05-21T13:11:05.611Z,26.54
2018-05-21T13:13:33.117Z,26.66
2018-05-21T13:16:02.256Z,27.06
2018-05-21T13:18:29.773Z,27.67
2018-05-21T13:20:57.247Z,27.11
2018-05-21T13:23:24.739Z,26.94
2018-05-21T13:25:52.205Z,26.78
2018-05-21T13:28:19.724Z,26.83
2018-05-21T13:30:47.234Z,27.35
2018-05-21T13:33:14.701Z,27.75
2018-05-21T13:35:42.690Z,27.64
2018-05-21T13:38:10.464Z,27.82
2018-05-21T13:40:41.753Z,27.81
2018-05-21T13:43:09.333Z,27.72
2018-05-21T13:45:36.774Z,27.11
2018-05-21T13:48:04.239Z,27.42
2018-05-21T13:50:31.716Z,27.99
2018-05-21T13:52:59.193Z,27.50
2018-05-21T13:55:26.675Z,27.25
2018-05-21T13:57:54.208Z,26.35
2018-05-21T14:00:21.671Z,25.82
2018-05-21T14:02:49.378Z,25.51
2018-05-21T14:05:16.907Z,25.39
2018-05-21T14:07:44.412Z,25.45
2018-05-21T14:10:11.899Z,25.79
2018-05-21T14:12:39.417Z,26.76
2018-05-21T14:15:06.891Z,27.72
2018-05-21T14:17:34.344Z,27.85
2018-05-21T14:20:01.832Z,28.52
2018-05-21T14:22:29.331Z,28.79
2018-05-21T14:24:56.829Z,29.43
2018-05-21T14:27:24.333Z,29.65
2018-05-21T14:29:51.909Z,29.74
2018-05-21T14:32:19.314Z,30.27
2018-05-21T14:34:46.788Z,30.41
2018-05-21T14:37:14.280Z,30.74
2018-05-21T14:39:41.828Z,30.77
2018-05-21T14:42:09.309Z,31.06
2018-05-21T14:44:36.816Z,31.57
2018-05-21T14:47:04.276Z,31.81
2018-05-21T14:49:31.743Z,32.13
2018-05-21T14:51:59.227Z,32.46
2018-05-21T14:54:26.702Z,32.35
2018-05-21T14:56:54.297Z,32.29
2018-05-21T14:59:21.841Z,32.03
2018-05-21T15:01:49.390Z,32.06
2018-05-21T15:04:16.915Z,31.54
2018-05-21T15:06:44.401Z,31.87
2018-05-21T15:09:11.901Z,32.03
2018-05-21T15:11:39.384Z,31.42
2018-05-21T15:14:06.879Z,31.31
2018-05-21T15:16:34.359Z,31.59
2018-05-21T15:19:01.923Z,31.90
2018-05-21T15:21:29.443Z,32.17
2018-05-21T15:23:56.915Z,32.93
2018-05-21T15:26:24.428Z,33.42
2018-05-21T15:28:51.945Z,33.85
2018-05-21T15:31:19.437Z,34.34
2018-05-21T15:33:46.919Z,34.94
2018-05-21T15:36:14.603Z,34.79
2018-05-21T15:38:42.023Z,35.28
2018-05-21T15:41:09.505Z,37.01
2018-05-21T15:43:36.984Z,37.50
2018-05-21T15:46:04.472Z,37.78
2018-05-21T15:48:31.974Z,38.08
2018-05-21T15:50:59.443Z,38.56
2018-05-21T15:53:26.934Z,38.55
2018-05-21T15:55:54.449Z,37.87
2018-05-21T15:58:21.920Z,38.01
2018-05-21T16:00:49.405Z,37.61
2018-05-21T16:03:16.887Z,37.43
2018-05-21T16:05:44.352Z,37.43
2018-05-21T16:08:11.824Z,37.24
2018-05-21T16:10:39.336Z,37.25
2018-05-21T16:13:06.796Z,37.06
2018-05-21T16:15:34.288Z,36.83
2018-05-21T16:18:01.749Z,36.90
2018-05-21T16:20:29.263Z,37.12
2018-05-21T16:22:56.838Z,36.86
2018-05-21T16:25:24.322Z,37.07
2018-05-21T16:27:51.824Z,37.33
2018-05-21T16:30:19.403Z,37.53
2018-05-21T16:32:46.896Z,37.45
2018-05-21T16:35:14.395Z,37.47
2018-05-21T16:37:41.916Z,37.68
2018-05-21T16:40:09.407Z,37.59
2018-05-21T16:42:36.890Z,37.62
2018-05-21T16:45:04.435Z,37.62
2018-05-21T16:47:31.920Z,37.46
2018-05-21T16:49:59.474Z,37.49
2018-05-21T16:52:26.994Z,37.28
2018-05-21T16:54:54.475Z,37.10
2018-05-21T16:57:21.962Z,36.87
2018-05-21T16:59:49.451Z,36.93
2018-05-21T17:02:17.275Z,37.28
2018-05-21T17:04:44.750Z,36.97
2018-05-21T17:07:12.279Z,36.55
2018-05-21T17:09:39.738Z,36.72
2018-05-21T17:12:07.252Z,36.90
2018-05-21T17:14:34.767Z,37.04
2018-05-21T17:17:02.300Z,37.57
2018-05-21T17:19:29.791Z,37.85
2018-05-21T17:21:57.282Z,37.75
2018-05-21T17:24:24.761Z,37.79
2018-05-21T17:26:52.246Z,37.21
2018-05-21T17:29:19.787Z,35.52
2018-05-21T17:31:47.258Z,34.68
2018-05-21T17:34:14.751Z,34.93
2018-05-21T17:36:42.234Z,35.65
2018-05-21T17:39:09.718Z,36.17
2018-05-21T17:41:37.216Z,36.55
2018-05-21T17:44:04.750Z,36.19
2018-05-21T17:46:32.266Z,36.27
2018-05-21T17:48:59.750Z,36.62
2018-05-21T17:51:27.251Z,36.88
2018-05-21T17:53:54.764Z,37.38
2018-05-21T17:56:22.276Z,37.52
2018-05-21T17:58:49.810Z,37.59
2018-05-21T18:01:17.629Z,37.97
2018-05-21T18:03:45.350Z,38.28
2018-05-21T18:06:12.810Z,38.56
2018-05-21T18:08:40.326Z,39.06
2018-05-21T18:11:07.881Z,40.00
2018-05-21T18:13:35.371Z,42.47
2018-05-21T18:16:02.840Z,43.32
2018-05-21T18:18:30.402Z,43.91
2018-05-21T18:20:57.882Z,44.33
2018-05-21T18:23:25.376Z,45.17
2018-05-21T18:25:52.861Z,45.99
2018-05-21T18:28:20.442Z,46.46
2018-05-21T18:30:47.953Z,47.19
2018-05-21T18:33:15.690Z,47.60
2018-05-21T18:35:43.387Z,47.89
2018-05-21T18:38:10.868Z,48.19
2018-05-21T18:40:38.437Z,48.73
2018-05-21T18:43:05.892Z,49.43
2018-05-21T18:45:33.427Z,49.82
2018-05-21T18:48:00.896Z,50.35
2018-05-21T18:50:28.397Z,50.79
2018-05-21T18:52:56.126Z,51.13
2018-05-21T18:55:23.666Z,51.40
2018-05-21T18:57:51.146Z,51.88
2018-05-21T19:00:18.621Z,52.32
2018-05-21T19:02:46.099Z,52.89
2018-05-21T19:05:13.634Z,53.21
2018-05-21T19:07:41.129Z,53.44
2018-05-21T19:10:08.653Z,53.93
2018-05-21T19:12:36.169Z,53.83
2018-05-21T19:15:04.563Z,54.38
2018-05-21T19:17:32.140Z,54.51
2018-05-21T19:19:59.641Z,54.51
2018-05-21T19:22:27.116Z,54.55
2018-05-21T19:24:54.660Z,54.78
2018-05-21T19:27:22.232Z,55.05
2018-05-21T19:29:49.747Z,55.66
2018-05-21T19:32:17.646Z,55.71
2018-05-21T19:34:45.226Z,56.13
2018-05-21T19:37:12.794Z,56.41
2018-05-21T19:39:40.286Z,57.22
2018-05-21T19:42:07.839Z,57.52
2018-05-21T19:44:35.309Z,57.99
2018-05-21T19:47:03.003Z,58.19
2018-05-21T19:49:30.539Z,58.23
2018-05-21T19:51:58.006Z,58.12
2018-05-21T19:54:25.531Z,58.28
2018-05-21T19:56:53.026Z,58.91
2018-05-21T19:59:21.299Z,59.53
2018-05-21T20:01:48.820Z,59.22
2018-05-21T20:04:16.340Z,59.53
2018-05-21T20:06:43.834Z,59.74
2018-05-21T20:09:11.325Z,59.92
2018-05-21T20:11:40.080Z,59.96
2018-05-21T20:14:07.708Z,60.42
2018-05-21T20:16:35.269Z,60.71
2018-05-21T20:19:02.773Z,61.52
2018-05-21T20:23:56.763Z,61.19
2018-05-21T20:26:24.338Z,60.85
2018-05-21T20:28:52.018Z,60.73
2018-05-21T20:31:20.607Z,60.71
2018-05-21T20:36:39.020Z,61.13
2018-05-21T20:39:06.964Z,61.41
2018-05-21T20:41:34.898Z,61.92
2018-05-21T20:44:02.463Z,61.56
2018-05-21T20:46:29.998Z,61.43
2018-05-21T20:48:57.542Z,61.42
2018-05-21T20:51:25.137Z,61.58
2018-05-21T20:53:53.432Z,61.58
2018-05-21T20:56:21.370Z,61.50
2018-05-21T21:01:29.451Z,62.49
2018-05-21T21:03:58.692Z,62.62
2018-05-21T21:06:26.185Z,62.97
2018-05-21T21:08:53.693Z,63.11
2018-05-21T21:11:21.231Z,63.17
2018-05-21T21:13:48.723Z,64.24
2018-05-21T21:16:16.411Z,64.69
2018-05-21T21:18:44.002Z,65.15
2018-05-21T21:21:11.776Z,65.08
2018-05-21T21:23:39.936Z,65.58
2018-05-21T21:26:07.735Z,65.82
2018-05-21T21:28:35.299Z,65.96
2018-05-21T21:31:02.926Z,65.88
2018-05-21T21:33:32.436Z,66.48
2018-05-21T21:36:01.157Z,67.12
2018-05-21T21:51:33.976Z,68.42
2018-05-21T21:54:01.617Z,69.24
2018-05-21T21:56:30.495Z,69.90
2018-05-21T21:59:00.033Z,70.28
2018-05-21T22:01:28.628Z,70.25
2018-05-21T22:03:56.269Z,70.44
2018-05-21T22:06:28.714Z,70.93
2018-05-21T22:08:59.074Z,71.24
2018-05-21T22:11:27.317Z,71.14
2018-05-21T22:13:56.708Z,71.18
2018-05-21T22:16:24.414Z,70.84
2018-05-21T22:18:55.065Z,70.62
2018-05-21T22:21:23.533Z,70.60
2018-05-21T22:23:52.542Z,71.05
2018-05-21T22:26:20.207Z,71.16
2018-05-21T22:28:49.235Z,71.21
2018-05-21T22:31:16.943Z,71.46
2018-05-21T22:33:46.549Z,71.40
2018-05-21T22:36:14.117Z,71.26
2018-05-21T22:38:41.611Z,71.35
2018-05-21T22:41:10.249Z,71.24
2018-05-21T22:43:41.286Z,71.02
2018-05-21T22:46:09.428Z,70.80
2018-05-21T22:48:37.035Z,70.80
2018-05-21T22:51:11.734Z,70.68
2018-05-21T22:53:39.246Z,70.68
2018-05-21T22:56:07.272Z,70.79
2018-05-21T22:58:38.429Z,70.95
2018-05-21T23:01:05.928Z,71.18
2018-05-21T23:03:33.411Z,71.49
2018-05-21T23:06:03.166Z,71.51
2018-05-21T23:08:30.696Z,70.89
2018-05-21T23:11:03.182Z,70.89
2018-05-21T23:13:32.317Z,71.35
2018-05-21T23:16:03.361Z,71.70
2018-05-21T23:18:30.953Z,72.29
2018-05-21T23:20:58.519Z,72.53
2018-05-21T23:23:26.011Z,72.64
2018-05-21T23:25:53.674Z,72.84
2018-05-21T23:28:21.213Z,72.96
2018-05-21T23:30:48.682Z,73.10
2018-05-21T23:33:16.262Z,73.17
2018-05-21T23:35:43.723Z,73.24
2018-05-21T23:38:11.215Z,73.44
2018-05-21T23:40:38.715Z,73.67
2018-05-21T23:43:06.227Z,73.97
2018-05-21T23:45:34.277Z,74.35
2018-05-21T23:48:01.811Z,74.46
2018-05-21T23:50:30.040Z,74.66
2018-05-21T23:52:57.538Z,75.24
2018-05-21T23:55:25.011Z,75.71
2018-05-21T23:57:52.504Z,76.26
